Time;durP1;ratioP1;P1;durP2;ratioP2;P2;SDS_P1;SDS_P2;PMS_P1;PMS_P2;Temp;Humidity;BMP_temperature;BMP_pressure;BME280_temperature;BME280_humidity;BME280_pressure;Samples;Min_cycle;Max_cycle;Signal;HPM_P1;HPM_P2
2022/01/12 00:02:06;;;;;;;6.57;2.40;;;;;;;4.14;100.00;102671.69;4774699;30;20083;-88
2022/01/12 00:04:31;;;;;;;5.70;1.50;;;;;;;4.17;100.00;102667.91;4774653;30;20032;-88
2022/01/12 00:06:57;;;;;;;6.00;1.70;;;;;;;4.15;100.00;102673.38;4775577;30;20055;-88
2022/01/12 00:09:22;;;;;;;5.45;1.20;;;;;;;4.17;100.00;102675.91;4775116;30;20034;-87
2022/01/12 00:11:48;;;;;;;7.63;1.25;;;;;;;4.19;100.00;102690.00;4772371;30;20029;-87
2022/01/12 00:14:13;;;;;;;5.40;1.00;;;;;;;4.21;100.00;102682.75;4774013;30;20037;-88
2022/01/12 00:16:40;;;;;;;4.45;0.77;;;;;;;4.20;100.00;102684.53;4775462;30;20043;-88
2022/01/12 00:19:06;;;;;;;1.90;0.70;;;;;;;4.14;100.00;102689.47;4777973;30;20063;-88
2022/01/12 00:21:31;;;;;;;5.93;0.77;;;;;;;4.13;100.00;102699.28;4775604;30;20459;-88
2022/01/12 00:23:56;;;;;;;3.90;0.88;;;;;;;4.03;100.00;102684.91;4777185;30;20118;-87
2022/01/12 00:34:29;;;;;;;2.45;0.80;;;;;;;3.98;100.00;102717.22;4777429;30;20052;-86
2022/01/12 00:36:54;;;;;;;5.60;0.93;;;;;;;4.04;100.00;102723.94;4778189;30;20424;-88
2022/01/12 00:39:21;;;;;;;4.75;1.20;;;;;;;4.06;100.00;102737.13;4778099;30;20071;-88
2022/01/12 00:41:47;;;;;;;10.63;1.48;;;;;;;3.98;100.00;102725.22;4777637;30;20028;-88
2022/01/12 00:44:22;;;;;;;9.60;1.85;;;;;;;4.02;100.00;102738.31;4777945;30;20015;-88
2022/01/12 00:46:47;;;;;;;;;;;;;;;4.05;100.00;102741.59;4777773;30;20036;-88
2022/01/12 00:49:13;;;;;;;10.25;2.30;;;;;;;4.08;100.00;102754.72;4777442;30;19979;-88
2022/01/12 00:51:39;;;;;;;20.55;4.22;;;;;;;4.11;100.00;102757.16;4777822;30;20020;-88
2022/01/12 00:54:06;;;;;;;12.82;4.10;;;;;;;4.17;100.00;102755.84;4777063;30;20062;-88
2022/01/12 00:56:32;;;;;;;19.05;4.93;;;;;;;4.15;100.00;102755.97;4777804;30;20096;-87
2022/01/12 00:58:57;;;;;;;23.58;5.80;;;;;;;4.19;100.00;102765.44;4776987;30;20043;-88
2022/01/12 01:01:24;;;;;;;27.95;6.63;;;;;;;4.24;100.00;102768.66;4777499;30;20031;-87
2022/01/12 01:03:50;;;;;;;23.20;6.20;;;;;;;4.21;100.00;102766.19;4777111;30;20028;-87
2022/01/12 01:06:16;;;;;;;22.83;5.15;;;;;;;4.16;100.00;102760.31;4777129;30;20035;-88
2022/01/12 01:08:43;;;;;;;16.85;4.10;;;;;;;4.15;100.00;102763.13;4777515;30;20016;-88
2022/01/12 01:11:09;;;;;;;22.08;4.93;;;;;;;4.11;100.00;102773.13;4777563;30;20039;-87
2022/01/12 01:13:42;;;;;;;22.50;4.47;;;;;;;4.06;100.00;102769.94;4776388;30;20040;-87
2022/01/12 01:26:52;;;;;;;21.65;2.92;;;;;;;3.78;100.00;102791.50;4783281;30;20056;-88
2022/01/12 01:29:17;;;;;;;21.08;3.20;;;;;;;3.73;100.00;102789.97;4776497;30;20035;-87
2022/01/12 01:31:45;;;;;;;16.25;3.10;;;;;;;3.66;100.00;102775.38;4776377;30;20040;-87
2022/01/12 01:34:13;;;;;;;21.02;3.05;;;;;;;3.58;100.00;102759.09;4776259;30;20036;-88
2022/01/12 01:36:45;;;;;;;18.45;2.90;;;;;;;3.57;100.00;102756.53;4776334;30;20032;-88
2022/01/12 01:39:13;;;;;;;19.00;3.13;;;;;;;3.56;100.00;102763.66;4758862;30;20040;-87
2022/01/12 01:41:41;;;;;;;21.67;3.47;;;;;;;3.50;100.00;102761.41;4767372;30;20019;-88
2022/01/12 01:44:35;;;;;;;20.88;3.25;;;;;;;3.46;100.00;102771.41;4762471;30;20043;-88
2022/01/12 01:55:09;;;;;;;;;;;;;;;3.19;100.00;102765.31;4776483;30;20051;-87
2022/01/12 01:57:35;;;;;;;18.83;3.25;;;;;;;3.17;100.00;102765.41;4775256;30;19933;-88
2022/01/12 02:00:10;;;;;;;14.82;2.75;;;;;;;3.06;100.00;102754.63;4775933;30;20044;-89
2022/01/12 02:02:35;;;;;;;23.13;3.15;;;;;;;3.12;100.00;102762.22;4774243;30;20024;-88
2022/01/12 02:05:01;;;;;;;20.13;2.90;;;;;;;3.11;100.00;102765.81;4774777;30;20036;-87
2022/01/12 02:07:26;;;;;;;25.40;3.00;;;;;;;3.04;100.00;102751.22;4773719;30;20048;-87
2022/01/12 02:09:53;;;;;;;16.70;3.08;;;;;;;3.08;100.00;102739.44;4773038;30;20075;-88
2022/01/12 02:12:27;;;;;;;26.35;3.63;;;;;;;2.99;100.00;102727.59;4773386;30;20040;-88
2022/01/12 02:14:54;;;;;;;;;;;;;;;3.04;100.00;102753.88;4774058;30;20080;-88
2022/01/12 02:17:23;;;;;;;21.95;3.97;;;;;;;2.99;100.00;102759.50;4774189;30;19971;-87
2022/01/12 02:36:54;;;;;;;37.30;6.00;;;;;;;2.87;100.00;102744.34;4776064;30;20039;-87
2022/01/12 02:42:03;;;;;;;34.10;5.65;;;;;;;2.71;100.00;102736.53;4774592;30;20042;-88
2022/01/12 02:55:25;;;;;;;41.95;6.35;;;;;;;2.76;100.00;102749.53;4773901;30;20080;-82
2022/01/12 02:57:51;;;;;;;37.03;5.88;;;;;;;2.68;100.00;102739.41;4774166;30;20040;-86
2022/01/12 03:00:19;;;;;;;38.33;5.80;;;;;;;2.74;100.00;102752.28;4744473;30;20044;-86
2022/01/12 03:02:50;;;;;;;30.75;5.28;;;;;;;2.72;100.00;102762.19;4773392;30;20035;-87
2022/01/12 03:07:49;;;;;;;31.30;5.53;;;;;;;2.69;100.00;102762.38;4774365;30;20131;-87
2022/01/12 03:10:15;;;;;;;31.55;5.05;;;;;;;2.66;100.00;102759.06;4771035;30;20032;-87
2022/01/12 03:12:43;;;;;;;27.33;4.90;;;;;;;2.65;100.00;102750.25;4756803;30;20033;-87
2022/01/12 03:15:09;;;;;;;34.15;4.90;;;;;;;2.64;100.00;102763.63;4757579;30;20029;-87
2022/01/12 03:17:35;;;;;;;31.08;4.68;;;;;;;2.64;100.00;102763.63;4774975;30;20035;-87
2022/01/12 03:20:02;;;;;;;36.92;4.45;;;;;;;2.64;100.00;102751.19;4774150;30;20036;-87
2022/01/12 03:22:28;;;;;;;43.60;5.85;;;;;;;2.64;100.00;102745.84;4774242;30;20020;-87
2022/01/12 03:24:53;;;;;;;37.20;4.90;;;;;;;2.59;100.00;102746.16;4773171;30;20051;-86
2022/01/12 03:27:21;;;;;;;41.15;4.80;;;;;;;2.65;100.00;102765.31;4773142;30;20058;-87
2022/01/12 03:29:50;;;;;;;36.35;4.60;;;;;;;2.64;100.00;102761.81;4761664;30;20041;-86
2022/01/12 03:32:19;;;;;;;37.83;5.47;;;;;;;2.66;100.00;102773.19;4755792;30;20114;-87
2022/01/12 03:34:53;;;;;;;36.10;5.43;;;;;;;2.68;100.00;102778.41;4767284;30;20033;-87
2022/01/12 03:37:41;;;;;;;39.47;4.72;;;;;;;2.61;100.00;102766.47;4773173;30;20071;-87
2022/01/12 03:40:07;;;;;;;32.20;4.95;;;;;;;2.66;100.00;102769.69;4750007;30;20124;-87
2022/01/12 03:42:34;;;;;;;30.58;4.78;;;;;;;2.66;100.00;102761.72;4769725;30;20081;-87
2022/01/12 03:44:59;;;;;;;41.00;4.80;;;;;;;2.66;100.00;102753.75;4762464;30;20051;-87
2022/01/12 03:47:25;;;;;;;25.10;4.15;;;;;;;2.59;100.00;102751.47;4754808;30;20048;-86
2022/01/12 03:49:50;;;;;;;39.47;4.95;;;;;;;2.64;100.00;102748.50;4757157;30;20051;-86
2022/01/12 03:52:15;;;;;;;43.88;4.30;;;;;;;2.60;100.00;102749.69;4764569;30;20104;-86
2022/01/12 03:54:41;;;;;;;40.50;4.50;;;;;;;2.57;100.00;102744.56;4776462;30;20031;-82
2022/01/12 03:57:06;;;;;;;42.33;5.13;;;;;;;2.59;100.00;102751.47;4775200;30;20036;-87
2022/01/12 03:59:32;;;;;;;39.97;4.95;;;;;;;2.55;100.00;102747.31;4773551;30;20036;-86
2022/01/12 04:01:58;;;;;;;32.95;4.20;;;;;;;2.62;100.00;102752.25;4772976;30;20067;-86
2022/01/12 04:04:31;;;;;;;37.65;4.38;;;;;;;2.63;100.00;102756.59;4758762;30;20112;-87
2022/01/12 04:09:43;;;;;;;37.38;4.70;;;;;;;2.63;100.00;102762.78;4770651;30;20096;-86
2022/01/12 04:12:09;;;;;;;39.20;4.57;;;;;;;2.63;100.00;102759.25;4773602;30;20451;-86
2022/01/12 04:14:35;;;;;;;45.53;5.88;;;;;;;2.66;100.00;102765.22;4776483;30;20081;-87
2022/01/12 04:17:00;;;;;;;38.63;4.85;;;;;;;2.67;100.00;102774.06;4777482;30;20040;-86
2022/01/12 04:19:27;;;;;;;36.50;5.40;;;;;;;2.62;100.00;102763.72;4775120;30;20071;-87
2022/01/12 04:21:53;;;;;;;39.53;5.07;;;;;;;2.68;100.00;102770.44;4775278;30;20040;-86
2022/01/12 04:24:18;;;;;;;37.22;4.88;;;;;;;2.71;100.00;102765.75;4773670;30;20040;-86
2022/01/12 04:26:43;;;;;;;39.05;4.60;;;;;;;2.72;100.00;102772.81;4773368;30;20078;-86
2022/01/12 04:29:09;;;;;;;39.55;5.55;;;;;;;2.73;100.00;102763.88;4773736;30;20044;-86
2022/01/12 04:31:35;;;;;;;56.90;5.55;;;;;;;2.74;100.00;102762.91;4773291;30;20060;-85
2022/01/12 04:34:01;;;;;;;43.90;5.65;;;;;;;2.77;100.00;102762.72;4774005;30;20035;-85
2022/01/12 04:36:27;;;;;;;39.08;5.10;;;;;;;2.62;100.00;102733.66;4772602;30;20060;-85
2022/01/12 04:38:52;;;;;;;51.10;5.20;;;;;;;2.75;100.00;102758.47;4774486;30;20374;-85
2022/01/12 04:41:18;;;;;;;41.90;5.20;;;;;;;2.80;100.00;102762.50;4774070;30;20052;-85
2022/01/12 04:43:44;;;;;;;58.58;6.03;;;;;;;2.84;100.00;102757.84;4740927;30;20040;-86
2022/01/12 04:51:09;;;;;;;46.95;5.57;;;;;;;2.88;100.00;102750.53;4775380;30;20036;-86
2022/01/12 04:53:35;;;;;;;53.10;5.45;;;;;;;2.86;100.00;102747.13;4774128;30;20028;-86
2022/01/12 04:56:01;;;;;;;51.60;6.63;;;;;;;3.00;100.00;102747.06;4773823;30;20056;-85
2022/01/12 04:58:27;;;;;;;64.07;6.70;;;;;;;3.04;100.00;102730.78;4770867;30;20020;-86
2022/01/12 05:00:57;;;;;;;49.65;7.53;;;;;;;3.10;100.00;102736.66;4756710;30;20109;-85
2022/01/12 05:09:06;;;;;;;71.20;10.55;;;;;;;3.25;100.00;102748.94;4755125;30;20052;-87
2022/01/12 05:14:19;;;;;;;102.25;12.93;;;;;;;3.28;100.00;102738.94;4777380;30;20075;-85
2022/01/12 05:16:44;;;;;;;210.02;15.73;;;;;;;3.28;100.00;102741.59;4772195;30;20040;-85
2022/01/12 05:19:10;;;;;;;207.48;14.70;;;;;;;3.24;100.00;102742.75;4771684;30;20040;-85
2022/01/12 05:21:36;;;;;;;182.48;13.70;;;;;;;3.23;100.00;102733.06;4755279;30;20036;-84
2022/01/12 05:24:06;;;;;;;167.13;15.27;;;;;;;3.24;100.00;102725.94;4766805;30;20032;-85
2022/01/12 05:26:32;;;;;;;130.60;13.73;;;;;;;3.33;100.00;102732.44;4755469;30;20051;-85
2022/01/12 05:31:28;;;;;;;184.75;14.02;;;;;;;3.29;100.00;102748.63;4755726;30;20063;-87
2022/01/12 05:33:54;;;;;;;128.02;12.65;;;;;;;3.24;100.00;102747.22;4757284;30;20075;-87
2022/01/12 05:36:20;;;;;;;137.70;11.63;;;;;;;2.65;100.00;102635.94;4758005;30;20044;-87
2022/01/12 05:38:47;;;;;;;111.68;11.57;;;;;;;2.56;100.00;102642.72;4756201;30;20063;-85
2022/01/12 05:41:13;;;;;;;97.95;9.88;;;;;;;2.56;100.00;102634.75;4758601;30;20067;-87
2022/01/12 05:51:33;;;;;;;68.40;8.00;;;;;;;3.34;100.00;102736.81;4771524;30;20047;-88
2022/01/12 05:53:58;;;;;;;57.47;7.78;;;;;;;3.41;100.00;102743.41;4898322;24;20044;-85
2022/01/12 05:56:24;;;;;;;73.93;8.32;;;;;;;3.51;100.00;102747.16;4760925;30;20098;-85
2022/01/12 05:58:50;;;;;;;56.33;7.55;;;;;;;3.51;100.00;102736.53;4775126;30;20024;-84
2022/01/12 06:06:26;;;;;;;38.63;6.72;;;;;;;3.58;100.00;102727.16;5160122;24;20071;-87
2022/01/12 06:08:51;;;;;;;51.60;7.15;;;;;;;3.57;100.00;102725.44;4771585;30;20100;-87
2022/01/12 06:11:17;;;;;;;44.58;7.63;;;;;;;3.55;100.00;102707.88;4773758;30;20040;-86
2022/01/12 06:13:42;;;;;;;62.28;7.95;;;;;;;3.58;100.00;102719.16;4773507;30;20017;-89
2022/01/12 06:16:07;;;;;;;41.95;7.88;;;;;;;3.53;100.00;102722.13;4774073;30;20116;-85
2022/01/12 06:18:34;;;;;;;47.25;7.40;;;;;;;3.46;100.00;102717.34;4770603;30;20044;-85
2022/01/12 06:20:59;;;;;;;40.15;7.55;;;;;;;3.53;100.00;102735.44;4781110;30;20121;-87
2022/01/12 06:23:25;;;;;;;85.72;10.48;;;;;;;3.47;100.00;102709.25;4790032;30;20024;-85
2022/01/12 06:25:50;;;;;;;80.75;10.70;;;;;;;3.49;100.00;102706.50;4774920;30;20055;-88
2022/01/12 06:33:31;;;;;;;53.57;8.27;;;;;;;3.46;100.00;102704.88;4758513;30;20039;-88
2022/01/12 06:35:57;;;;;;;42.30;8.80;;;;;;;3.28;100.00;102672.44;4753934;30;20044;-86
2022/01/12 06:38:22;;;;;;;36.80;7.40;;;;;;;3.38;100.00;102699.25;4781579;30;20066;-86
2022/01/12 06:40:48;;;;;;;37.35;7.70;;;;;;;3.46;100.00;102714.69;4771170;30;20043;-88
2022/01/12 06:43:13;;;;;;;39.72;7.95;;;;;;;3.44;100.00;102704.13;4769842;30;20031;-87
2022/01/12 06:45:39;;;;;;;30.63;7.82;;;;;;;3.44;100.00;102698.81;4770081;30;20050;-87
2022/01/12 06:48:06;;;;;;;38.97;9.10;;;;;;;3.46;100.00;102701.38;4771829;30;20032;-88
2022/01/12 06:50:31;;;;;;;50.33;9.20;;;;;;;3.48;100.00;102696.81;4765793;30;20035;-85
2022/01/12 06:52:57;;;;;;;44.13;8.43;;;;;;;3.37;100.00;102683.38;4769125;30;20040;-85
2022/01/12 06:55:22;;;;;;;36.70;8.63;;;;;;;3.48;100.00;102702.13;4771440;30;20070;-83
2022/01/12 06:57:47;;;;;;;45.90;9.40;;;;;;;3.48;100.00;102710.97;4764414;30;20103;-83
2022/01/12 07:00:13;;;;;;;50.38;9.30;;;;;;;3.43;100.00;102696.25;4765699;30;20044;-84
2022/01/12 07:02:38;;;;;;;47.75;10.07;;;;;;;3.46;100.00;102704.88;4772245;30;20031;-84
2022/01/12 07:05:04;;;;;;;49.50;10.00;;;;;;;3.46;100.00;102704.88;4770508;30;20035;-82
2022/01/12 07:07:30;;;;;;;31.92;8.38;;;;;;;3.44;100.00;102709.44;4758783;30;20047;-84
2022/01/12 07:09:55;;;;;;;41.10;8.25;;;;;;;3.44;100.00;102697.97;4764379;30;20035;-83
2022/01/12 07:12:20;;;;;;;51.38;8.68;;;;;;;3.49;100.00;102707.34;4756942;30;20028;-82
2022/01/12 07:14:46;;;;;;;51.30;7.70;;;;;;;3.46;100.00;102699.56;4757892;30;20036;-82
2022/01/12 07:17:12;;;;;;;44.60;7.95;;;;;;;3.53;100.00;102703.50;4743284;30;20456;-83
2022/01/12 07:19:38;;;;;;;48.15;7.50;;;;;;;3.50;100.00;102697.53;4754864;30;20098;-83
2022/01/12 07:22:03;;;;;;;49.58;6.80;;;;;;;3.56;100.00;102702.44;4780102;30;20032;-84
2022/01/12 07:24:29;;;;;;;51.60;7.13;;;;;;;3.57;100.00;102704.13;4764646;30;20124;-84
2022/01/12 07:26:54;;;;;;;48.42;5.63;;;;;;;3.63;100.00;102714.34;4766023;30;20028;-85
2022/01/12 07:29:20;;;;;;;43.15;6.38;;;;;;;3.62;100.00;102703.84;4785234;30;20078;-86
2022/01/12 07:31:46;;;;;;;41.53;5.68;;;;;;;3.63;100.00;102709.03;4768985;30;20050;-85
2022/01/12 07:34:14;;;;;;;48.70;5.75;;;;;;;3.57;100.00;102701.47;4742498;30;20091;-86
2022/01/12 07:36:40;;;;;;;45.17;6.65;;;;;;;3.64;100.00;102715.22;4755043;30;20447;-86
2022/01/12 07:39:05;;;;;;;48.70;6.03;;;;;;;3.64;100.00;102716.09;4764135;30;20096;-86
2022/01/12 07:41:30;;;;;;;40.38;5.50;;;;;;;3.66;100.00;102718.63;4748399;30;20051;-86
2022/01/12 07:43:56;;;;;;;43.28;5.93;;;;;;;3.66;100.00;102724.78;4764143;30;20067;-86
2022/01/12 07:46:21;;;;;;;52.50;5.72;;;;;;;3.62;100.00;102712.66;4751804;30;20353;-83
2022/01/12 07:48:47;;;;;;;49.75;5.88;;;;;;;3.67;100.00;102731.81;4764362;30;20091;-85
2022/01/12 07:51:12;;;;;;;37.80;5.53;;;;;;;3.68;100.00;102732.69;4765673;30;20025;-83
2022/01/12 07:53:38;;;;;;;44.38;5.80;;;;;;;3.72;100.00;102740.34;4771943;30;20047;-85
2022/01/12 07:56:03;;;;;;;46.67;5.25;;;;;;;3.77;100.00;102745.34;4758360;30;20032;-86
2022/01/12 07:58:29;;;;;;;44.92;6.45;;;;;;;3.75;100.00;102728.63;4766800;30;20047;-84
2022/01/12 08:00:54;;;;;;;37.95;5.60;;;;;;;3.82;100.00;102734.38;4765363;30;20065;-85
2022/01/12 08:03:20;;;;;;;48.22;6.10;;;;;;;3.84;100.00;102733.31;4751365;30;20027;-86
2022/01/12 08:05:46;;;;;;;51.28;6.15;;;;;;;3.87;100.00;102738.41;4772664;30;20124;-85
2022/01/12 08:08:12;;;;;;;38.72;5.78;;;;;;;3.92;100.00;102746.94;4762604;30;20079;-83
2022/01/12 08:10:38;;;;;;;34.95;5.22;;;;;;;3.94;100.00;102738.81;4761305;30;20102;-84
2022/01/12 08:13:03;;;;;;;36.83;5.07;;;;;;;3.98;100.00;102733.19;4764295;30;20028;-83
2022/01/12 08:15:29;;;;;;;44.05;5.10;;;;;;;4.06;100.00;102737.97;4773714;30;20044;-83
2022/01/12 08:17:54;;;;;;;39.95;4.90;;;;;;;4.04;100.00;102745.25;4748515;30;20040;-85
2022/01/12 08:20:25;;;;;;;43.63;5.30;;;;;;;4.01;100.00;102734.78;4742345;30;20108;-83
2022/01/12 08:22:50;;;;;;;45.35;5.15;;;;;;;4.00;100.00;102728.59;4767723;30;20031;-84
2022/01/12 08:25:17;;;;;;;41.80;4.93;;;;;;;4.00;100.00;102730.41;4759115;30;20495;-82
2022/01/12 08:27:43;;;;;;;49.40;5.88;;;;;;;4.04;100.00;102731.03;4762626;30;20070;-84
2022/01/12 08:30:16;;;;;;;51.08;5.22;;;;;;;3.97;100.00;102735.94;4758575;30;20044;-83
2022/01/12 08:32:42;;;;;;;48.95;6.18;;;;;;;3.94;100.00;102730.84;4759822;30;20094;-84
2022/01/12 08:35:08;;;;;;;52.90;5.65;;;;;;;3.94;100.00;102733.50;4769404;30;20040;-83
2022/01/12 08:37:34;;;;;;;43.22;6.20;;;;;;;3.96;100.00;102742.25;4757135;30;20086;-83
2022/01/12 08:39:59;;;;;;;44.58;5.70;;;;;;;3.89;100.00;102740.97;4774635;30;20036;-83
2022/01/12 08:42:25;;;;;;;45.25;5.88;;;;;;;3.96;100.00;102731.59;4759099;30;20013;-83
2022/01/12 08:44:50;;;;;;;47.35;6.82;;;;;;;3.98;100.00;102732.34;4769941;30;20100;-83
2022/01/12 08:47:16;;;;;;;49.63;6.43;;;;;;;4.01;100.00;102724.16;4767663;30;20047;-83
2022/01/12 08:49:41;;;;;;;44.38;5.93;;;;;;;4.06;100.00;102721.97;4766494;30;20055;-84
2022/01/12 08:52:08;;;;;;;39.60;5.85;;;;;;;4.10;100.00;102728.78;4776016;30;20055;-84
2022/01/12 08:54:33;;;;;;;43.90;5.40;;;;;;;4.13;100.00;102719.72;4776936;30;20036;-84
2022/01/12 08:56:59;;;;;;;61.30;6.10;;;;;;;4.22;100.00;102738.56;4770515;30;20062;-85
2022/01/12 08:59:24;;;;;;;39.70;5.65;;;;;;;4.19;100.00;102738.78;4765958;30;20039;-85
2022/01/12 09:01:50;;;;;;;56.35;7.72;;;;;;;4.21;100.00;102741.38;4754152;30;20116;-84
2022/01/12 09:04:15;;;;;;;47.67;6.80;;;;;;;4.16;100.00;102725.69;4755453;30;20104;-85
2022/01/12 09:06:41;;;;;;;50.15;6.55;;;;;;;4.22;100.00;102721.75;4773666;30;20048;-86
2022/01/12 09:09:07;;;;;;;40.65;5.65;;;;;;;4.23;100.00;102721.63;4771346;30;20044;-86
2022/01/12 09:11:32;;;;;;;43.40;5.50;;;;;;;4.29;100.00;102728.34;4773040;30;20062;-85
2022/01/12 09:13:58;;;;;;;45.65;6.50;;;;;;;4.24;100.00;102714.50;4764721;30;20036;-85
2022/01/12 09:16:23;;;;;;;53.70;6.30;;;;;;;4.35;100.00;102727.88;4772823;30;20100;-85
2022/01/12 09:18:49;;;;;;;42.80;6.20;;;;;;;4.32;100.00;102730.78;4768860;30;20038;-85
2022/01/12 09:21:14;;;;;;;52.45;5.88;;;;;;;4.40;100.00;102722.22;4765170;30;20040;-86
2022/01/12 09:23:40;;;;;;;48.60;6.10;;;;;;;4.31;100.00;102713.09;4754031;30;20081;-85
2022/01/12 09:26:07;;;;;;;44.58;6.60;;;;;;;4.42;100.00;102722.97;4758365;30;20495;-86
2022/01/12 09:28:33;;;;;;;43.03;6.70;;;;;;;4.35;100.00;102706.56;4751097;30;20162;-85
2022/01/12 09:30:59;;;;;;;47.45;6.80;;;;;;;4.41;100.00;102705.28;4764963;30;20056;-86
2022/01/12 09:33:25;;;;;;;47.95;6.45;;;;;;;4.51;100.00;102726.78;4753343;30;20446;-86
2022/01/12 09:35:51;;;;;;;38.95;6.57;;;;;;;4.52;100.00;102728.47;4768112;30;20048;-84
2022/01/12 09:38:19;;;;;;;48.22;6.93;;;;;;;4.53;100.00;102711.50;4764683;30;20041;-86
2022/01/12 09:40:45;;;;;;;49.92;7.43;;;;;;;4.58;100.00;102712.03;4752719;30;20036;-85
2022/01/12 09:43:11;;;;;;;45.08;7.95;;;;;;;4.64;100.00;102716.91;4752274;30;20028;-86
2022/01/12 09:45:39;;;;;;;46.83;7.90;;;;;;;4.64;100.00;102716.91;4768673;30;20036;-86
2022/01/12 09:48:05;;;;;;;60.65;9.02;;;;;;;4.71;100.00;102708.34;4767735;30;20062;-85
2022/01/12 09:50:31;;;;;;;49.97;9.20;;;;;;;4.69;100.00;102702.25;4767363;30;20036;-83
2022/01/12 09:52:56;;;;;;;48.80;7.60;;;;;;;4.74;100.00;102701.94;4764988;30;20066;-82
2022/01/12 09:55:21;;;;;;;46.03;7.10;;;;;;;4.71;100.00;102696.81;4777798;30;20066;-84
2022/01/12 09:57:47;;;;;;;59.15;8.38;;;;;;;4.76;100.00;102699.16;4758928;30;20056;-85
2022/01/12 10:00:15;;;;;;;64.05;8.15;;;;;;;4.80;100.00;102700.59;4767639;30;20095;-84
2022/01/12 10:02:42;;;;;;;43.28;7.53;;;;;;;4.79;100.00;102699.75;4754068;30;20036;-85
2022/01/12 10:05:10;;;;;;;47.45;7.35;;;;;;;4.06;100.00;102583.47;4791677;24;20068;-86
2022/01/12 10:07:36;;;;;;;44.45;7.30;;;;;;;4.92;100.00;102694.38;4775126;30;20012;-86
2022/01/12 10:10:10;;;;;;;53.83;8.20;;;;;;;4.97;100.00;102689.53;4775732;30;20028;-87
2022/01/12 10:12:36;;;;;;;55.55;7.88;;;;;;;4.14;100.00;102562.44;4776407;30;20050;-87
2022/01/12 10:15:10;;;;;;;46.22;7.22;;;;;;;4.50;100.00;102607.75;5101739;24;20048;-88
2022/01/12 10:17:41;;;;;;;62.03;8.02;;;;;;;5.11;100.00;102686.66;4782713;30;20039;-87
2022/01/12 10:20:08;;;;;;;39.80;7.07;;;;;;;5.14;100.00;102690.94;4804966;29;20087;-86
2022/01/12 10:22:34;;;;;;;44.75;6.25;;;;;;;5.14;100.00;102685.59;4792464;30;20050;-87
2022/01/12 10:25:01;;;;;;;45.78;6.60;;;;;;;5.19;100.00;102688.75;4792487;30;20036;-86
2022/01/12 10:27:28;;;;;;;42.85;6.82;;;;;;;5.22;100.00;102672.50;4774938;30;20036;-86
2022/01/12 10:30:01;;;;;;;56.63;8.15;;;;;;;5.28;100.00;102661.34;4795025;30;20053;-87
2022/01/12 10:32:27;;;;;;;61.13;8.07;;;;;;;5.26;100.00;102654.41;4787547;30;20024;-84
2022/01/12 10:34:54;;;;;;;46.50;6.65;;;;;;;5.35;100.00;102659.06;4782649;30;20047;-86
2022/01/12 10:37:22;;;;;;;45.90;7.00;;;;;;;5.38;100.00;102662.31;4776723;30;20087;-86
2022/01/12 10:39:53;;;;;;;45.05;6.53;;;;;;;5.42;100.00;102657.59;4782451;30;20027;-88
2022/01/12 10:42:24;;;;;;;40.17;5.80;;;;;;;5.34;100.00;102646.69;4774739;30;20043;-87
2022/01/12 10:44:55;;;;;;;47.90;7.38;;;;;;;5.36;100.00;102650.06;4775443;30;20047;-87
2022/01/12 10:47:29;;;;;;;38.55;5.90;;;;;;;5.38;100.00;102654.31;4789269;30;20023;-87
2022/01/12 10:49:55;;;;;;;31.95;5.30;;;;;;;5.45;100.00;102668.03;4794265;30;20057;-88
2022/01/12 10:57:36;;;;;;;49.63;6.32;;;;;;;4.93;100.00;102552.88;4821913;24;19921;-89
2022/01/12 11:00:18;;;;;;;53.75;6.30;;;;;;;5.62;100.00;102656.88;4792564;30;20083;-88
2022/01/12 11:02:52;;;;;;;50.42;6.00;;;;;;;5.67;100.00;102663.69;4793628;30;20015;-88
2022/01/12 11:05:20;;;;;;;43.13;5.85;;;;;;;5.22;100.00;102581.75;4792615;30;20018;-88
2022/01/12 11:07:46;;;;;;;42.03;6.63;;;;;;;4.89;100.00;102529.22;4922367;24;20070;-89
2022/01/12 11:10:12;;;;;;;41.80;5.55;;;;;;;4.97;100.00;102525.94;5053127;24;20083;-89
2022/01/12 11:12:39;;;;;;;44.08;6.55;;;;;;;5.01;100.00;102520.25;4834786;24;20043;-89
2022/01/12 11:15:07;;;;;;;52.67;6.95;;;;;;;5.12;100.00;102495.38;4825382;24;20050;-88
2022/01/12 11:17:32;;;;;;;49.63;6.10;;;;;;;5.86;100.00;102623.84;4792974;30;20065;-89
2022/01/12 11:20:07;;;;;;;44.67;6.25;;;;;;;5.94;100.00;102634.81;4809722;29;20078;-88
2022/01/12 11:23:03;;;;;;;56.25;6.07;;;;;;;5.99;100.00;102637.94;4862080;24;20019;-78
2022/01/12 11:33:08;;;;;;;41.95;5.97;;;;;;;6.18;100.00;102661.34;4774196;30;20060;-88
2022/01/12 11:35:37;;;;;;;46.92;6.38;;;;;;;6.11;100.00;102654.81;4775260;30;20024;-88
2022/01/12 11:38:18;;;;;;;38.70;4.53;;;;;;;6.17;100.00;102659.66;4775603;30;20036;-88
2022/01/12 11:40:43;;;;;;;50.08;6.63;;;;;;;6.14;100.00;102657.25;4773346;30;20026;-89
2022/01/12 11:46:15;;;;;;;43.47;6.03;;;;;;;5.42;100.00;102542.81;4891412;24;20099;-87
2022/01/12 11:48:44;;;;;;;39.88;6.00;;;;;;;6.17;100.00;102657.00;4774672;30;20036;-88
2022/01/12 11:51:09;;;;;;;47.13;6.00;;;;;;;6.17;100.00;102659.66;4773276;30;20026;-87
2022/01/12 11:53:45;;;;;;;51.53;6.05;;;;;;;6.17;100.00;102658.81;4775393;30;20020;-85
2022/01/12 11:56:20;;;;;;;41.63;6.07;;;;;;;6.20;100.00;102667.44;4773456;30;20040;-85
2022/01/12 11:59:13;;;;;;;50.03;6.13;;;;;;;6.19;100.00;102663.06;4770651;30;20043;-88
2022/01/12 12:01:51;;;;;;;43.42;5.85;;;;;;;6.19;100.00;102644.38;4776572;30;20044;-87
2022/01/12 12:04:24;;;;;;;49.85;6.40;;;;;;;6.17;100.00;102638.28;4775536;30;20032;-90
2022/01/12 12:07:01;;;;;;;46.45;6.05;;;;;;;6.20;100.00;102624.66;4775586;30;20039;-88
2022/01/12 12:09:35;;;;;;;43.65;5.85;;;;;;;6.15;100.00;102620.66;4775265;30;20036;-88
2022/01/12 12:12:01;;;;;;;45.30;5.47;;;;;;;6.23;100.00;102618.22;4775817;30;20107;-85
2022/01/12 12:14:27;;;;;;;45.13;5.72;;;;;;;5.78;100.00;102532.78;4818658;24;20071;-88
2022/01/12 12:16:53;;;;;;;40.45;5.40;;;;;;;5.45;100.00;102477.63;4797083;30;20031;-88
2022/01/12 12:19:19;;;;;;;49.67;6.20;;;;;;;5.63;100.00;102511.72;4808609;24;20070;-87
2022/01/12 12:21:50;;;;;;;47.97;6.50;;;;;;;5.64;100.00;102499.22;4797029;24;20100;-88
2022/01/12 12:26:53;;;;;;;49.03;6.57;;;;;;;5.60;100.00;102471.06;4883593;24;20052;-88
2022/01/12 12:31:56;;;;;;;53.25;5.78;;;;;;;5.36;100.00;102423.16;5101122;24;20146;-83
2022/01/12 12:39:28;;;;;;;47.60;6.03;;;;;;;5.70;100.00;102458.66;5556138;24;20163;-84
2022/01/12 12:44:29;;;;;;;46.65;6.50;;;;;;;5.59;100.00;102437.31;4776743;30;20074;-88
2022/01/12 12:47:13;;;;;;;53.85;6.07;;;;;;;5.60;100.00;102439.84;4778889;30;20087;-88
2022/01/12 12:52:24;;;;;;;46.13;6.20;;;;;;;6.22;100.00;102536.31;4966928;24;20056;-85
2022/01/12 12:54:49;;;;;;;56.08;6.32;;;;;;;5.91;100.00;102468.53;4768526;30;20075;-86
2022/01/12 12:57:20;;;;;;;55.05;6.55;;;;;;;6.27;100.00;102526.09;4792019;30;20032;-88
2022/01/12 13:00:34;;;;;;;45.72;5.65;;;;;;;6.19;100.00;102513.38;5099820;27;20388;-86
2022/01/12 13:05:41;;;;;;;48.20;6.00;;;;;;;5.72;100.00;102421.97;5032789;23;20043;-88
2022/01/12 13:10:42;;;;;;;50.95;6.13;;;;;;;5.68;100.00;102417.00;5443423;23;20041;-87
2022/01/12 13:13:11;;;;;;;57.33;6.10;;;;;;;5.67;100.00;102431.34;5055593;28;20049;-87
2022/01/12 13:15:40;;;;;;;47.83;6.38;;;;;;;5.81;100.00;102420.34;5365355;23;20106;-86
2022/01/12 13:18:09;;;;;;;47.03;5.70;;;;;;;6.10;100.00;102464.22;5034402;28;20031;-87
2022/01/12 13:23:24;;;;;;;56.70;6.63;;;;;;;5.54;100.00;102370.94;5034413;28;20020;-84
2022/01/12 13:25:54;;;;;;;57.35;6.32;;;;;;;6.33;100.00;102480.13;5676933;22;20033;-74
2022/01/12 13:30:58;;;;;;;45.35;6.07;;;;;;;5.64;100.00;102381.69;5043111;28;20060;-87
2022/01/12 13:33:31;;;;;;;54.70;7.90;;;;;;;5.68;100.00;102361.78;5044280;28;20081;-87
2022/01/12 13:35:58;;;;;;;50.47;6.43;;;;;;;5.50;100.00;102337.47;5038309;28;20002;-87
2022/01/12 13:38:27;;;;;;;54.72;6.60;;;;;;;5.67;100.00;102369.91;5052309;28;20021;-87